首页
METAR-TAF:

METAR-TAF

机场 :

肯皮亞圖爾濟, 罗马尼亚

纬度: 46-30-12N, 经度: 023-53-07E, 海拔: 324米

当前天气观测

该预报发布于1小时和13分钟前的07:00 UTC
风速3节,风向西
温度 0°C
湿度 100%
气压 1001 hPa
能見度: 8000
散云层高于8000英尺
多云层高于10000英尺

METAR: LRCT 130700Z 28003KT 8000 SCT080 BKN100 00/M00 Q1001 BLU BLU

时间: 10:13 (08:13 UTC)

预报

该预报发布于3小时和13分钟前的05:00 UTC
预报有效从13日的 06点(UTC)到 14日的 06点(UTC)
风速2节,风向多变
能見度: 5000
多云层高于2000英尺
多云层高于10000英尺
轻雾
短暂存在
从 13日的 06点(UTC)到 13日的 08点(UTC)
能見度: 1000
多云层高于200英尺
轻雾
成为
从 13日的 08点(UTC)到 13日的 10点(UTC)
风速4节,风向东南
能见度10公里或以上
多云层高于9000英尺
短暂存在
从 13日的 19点(UTC)到 13日的 23点(UTC)
能見度: 3000
多云层高于500英尺
轻雾
几率 30% :
短暂存在
从 14日的 00点(UTC)到 14日的 04点(UTC)
能見度: 0800
层高于200英尺
冻雾

TAF: LRCT 130500Z 1306/1406 VRB02KT 5000 BR BKN020 BKN100 TEMPO 1306/1308 1000 BR BKN002 BECMG 1308/1310 14004KT 9999 BKN090 TEMPO 1319/1323 3000 BR BKN005 PROB30 TEMPO 1400/1404 0800 FZFG VV002

超过4000个机场的气象观测和天气预报(METAR&TAF报告)。

可查询的气象台以黄色和红色小点在地图上表示。

将鼠标移到小点上方,可查看气象台名称。

然后点击查看天气观测和预报。

如需切换地图:点击带黑十字的绿色按钮放大地图;点击带横线的绿色按钮缩小地图;或者点击绿色箭头查看邻近地区的地图。


METAR-TAF: